Time;durP1;ratioP1;P1;durP2;ratioP2;P2;SDS_P1;SDS_P2;PMS_P1;PMS_P2;Temp;Humidity;BMP_temperature;BMP_pressure;BME280_temperature;BME280_humidity;BME280_pressure;Samples;Min_cycle;Max_cycle;Signal;HPM_P1;HPM_P2
2023/04/10 04:12:29;;;;;;;14.47;9.00;;;;;;;8.79;60.07;101163.81;4831367;29;20287;-70
2023/04/10 05:18:05;;;;;;;16.63;9.33;;;;;;;8.52;60.31;101186.16;4980880;28;20216;-71
2023/04/10 07:04:48;;;;;;;14.27;9.77;;;;;;;10.87;55.07;101175.69;5642923;23;20309;-66
2023/04/10 07:07:20;;;;;;;13.93;9.30;;;;;;;10.88;54.59;101174.72;4999901;23;20272;-67
2023/04/10 07:12:44;;;;;;;15.17;10.03;;;;;;;11.01;54.57;101171.81;5272237;23;20239;-66
2023/04/10 07:18:06;;;;;;;16.43;10.07;;;;;;;11.21;54.40;101171.78;6064021;23;21943;-67
2023/04/10 07:20:35;;;;;;;16.70;9.73;;;;;;;11.20;54.42;101177.22;4959269;28;20223;-68
2023/04/10 07:29:14;;;;;;;17.93;10.97;;;;;;;11.47;54.25;101163.31;5041245;23;20251;-66
2023/04/10 07:31:43;;;;;;;16.70;10.40;;;;;;;11.49;53.14;101156.88;5274435;23;20275;-68
2023/04/10 07:40:16;;;;;;;14.53;9.27;;;;;;;11.93;51.80;101160.88;5030581;23;20295;-66
2023/04/10 07:42:51;;;;;;;15.03;10.13;;;;;;;12.11;50.84;101161.00;4915902;29;20216;-68
2023/04/10 07:45:21;;;;;;;16.03;10.57;;;;;;;12.12;50.87;101165.34;4915467;29;20256;-70
2023/04/10 07:47:53;;;;;;;14.57;10.27;;;;;;;12.19;51.04;101155.81;4910169;29;20281;-67
2023/04/10 07:50:23;;;;;;;13.20;9.33;;;;;;;12.38;50.44;101157.59;4906155;29;20378;-70
2023/04/10 07:52:54;;;;;;;14.67;9.97;;;;;;;12.54;49.89;101157.00;4899274;29;20320;-67
2023/04/10 07:55:30;;;;;;;17.47;9.70;;;;;;;12.62;49.88;101151.78;4893105;29;20213;-66
2023/04/10 07:58:00;;;;;;;17.53;10.67;;;;;;;12.73;50.21;101148.97;4894650;29;20688;-68
2023/04/10 08:00:29;;;;;;;13.63;9.63;;;;;;;12.87;49.70;101153.81;4912934;29;20201;-71
2023/04/10 08:03:00;;;;;;;14.00;8.67;;;;;;;13.01;48.23;101147.19;4908889;29;20214;-69
2023/04/10 08:05:30;;;;;;;13.27;9.43;;;;;;;13.09;47.75;101150.78;4914415;29;20202;-70
2023/04/10 08:08:04;;;;;;;14.57;9.90;;;;;;;13.23;47.89;101143.28;4910550;29;20209;-68
2023/04/10 08:10:37;;;;;;;15.20;10.43;;;;;;;13.32;48.16;101134.41;4906533;29;20211;-68
2023/04/10 08:13:13;;;;;;;14.53;9.97;;;;;;;13.50;47.45;101135.28;5033087;23;20224;-66
2023/04/10 08:26:53;;;;;;;16.87;11.03;;;;;;;14.23;45.71;101120.78;5616636;23;20270;-69
2023/04/10 08:29:22;;;;;;;16.03;11.37;;;;;;;14.38;45.64;101118.34;4947746;29;20192;-67
2023/04/10 08:31:51;;;;;;;14.60;10.20;;;;;;;14.52;45.09;101114.28;5452726;23;20249;-69
2023/04/10 08:34:23;;;;;;;15.30;11.03;;;;;;;14.74;44.91;101120.94;4966373;28;20294;-69
2023/04/10 08:36:51;;;;;;;13.47;9.90;;;;;;;14.85;45.39;101116.16;4966121;29;20212;-70
2023/04/10 08:39:20;;;;;;;13.83;9.17;;;;;;;15.12;44.84;101117.75;4952475;28;20209;-71
2023/04/10 08:41:51;;;;;;;11.20;8.43;;;;;;;15.36;43.74;101106.31;4953819;28;20219;-67
2023/04/10 08:44:24;;;;;;;13.73;9.37;;;;;;;15.46;43.28;101114.16;4969917;28;20188;-67
2023/04/10 08:55:21;;;;;;;12.30;8.57;;;;;;;16.64;40.15;101087.72;5915724;23;20916;-66
2023/04/10 08:57:51;;;;;;;9.50;6.77;;;;;;;16.96;39.05;101081.41;4983919;28;20197;-70
2023/04/10 09:00:50;;;;;;;;;;;;;;;;;;;;;
2023/04/10 09:03:26;;;;;;;10.53;6.03;;;;;;;17.49;36.13;101074.41;4958952;28;20298;-69
2023/04/10 09:06:20;;;;;;;9.93;5.80;;;;;;;17.75;35.44;101069.53;4957115;28;20270;-70
2023/04/10 09:08:54;;;;;;;7.77;5.73;;;;;;;18.04;34.59;101060.72;4959887;28;20219;-71
2023/04/10 09:11:23;;;;;;;6.60;4.90;;;;;;;18.25;33.29;101071.59;4960584;28;20213;-71
2023/04/10 09:13:51;;;;;;;7.60;5.70;;;;;;;18.24;33.34;101059.19;4971184;28;20230;-68
2023/04/10 09:16:46;;;;;;;8.63;5.03;;;;;;;18.28;34.43;101055.13;4973486;28;20203;-67
2023/04/10 09:19:33;;;;;;;7.20;5.78;;;;;;;18.40;32.74;101047.44;4961724;28;20459;-70
2023/04/10 09:25:32;;;;;;;6.27;4.67;;;;;;;18.90;32.39;101038.63;4959619;28;20239;-70
2023/04/10 09:28:05;;;;;;;7.13;4.90;;;;;;;19.19;31.26;101037.69;4957409;28;20218;-68
2023/04/10 09:30:41;;;;;;;6.47;5.07;;;;;;;19.35;31.16;101042.81;4942411;28;20212;-69
2023/04/10 09:33:30;;;;;;;7.10;4.80;;;;;;;19.53;31.26;101039.72;4964135;28;20211;-68
2023/04/10 09:36:06;;;;;;;6.60;4.83;;;;;;;19.70;31.57;101029.56;4962129;28;20512;-69
2023/04/10 09:38:36;;;;;;;7.43;5.07;;;;;;;19.87;30.80;101030.94;4962996;28;20217;-68
2023/04/10 09:41:11;;;;;;;6.30;5.07;;;;;;;19.93;31.24;101030.16;4970428;28;20269;-65
2023/04/10 09:44:17;;;;;;;8.30;6.33;;;;;;;19.80;30.70;101028.16;4960387;28;20817;-69
2023/04/10 09:46:48;;;;;;;7.60;6.10;;;;;;;19.69;30.97;101012.56;4928719;28;20222;-70
2023/04/10 09:49:32;;;;;;;10.97;6.40;;;;;;;20.01;30.19;101016.53;4958618;28;20217;-68
2023/04/10 09:52:21;;;;;;;8.17;5.90;;;;;;;20.62;30.35;101001.38;4947264;28;20214;-69
2023/04/10 09:55:19;;;;;;;7.80;5.33;;;;;;;21.12;29.47;101004.63;4958098;28;20231;-69
2023/04/10 10:00:50;;;;;;;7.13;5.30;;;;;;;23.86;26.02;100994.25;4919470;29;20351;-69
2023/04/10 10:03:25;;;;;;;7.87;5.13;;;;;;;24.89;24.21;100993.53;4923365;29;20215;-68
2023/04/10 10:06:25;;;;;;;7.50;5.00;;;;;;;26.15;22.99;100987.75;4923878;29;20208;-69
2023/04/10 10:09:07;;;;;;;7.13;5.57;;;;;;;26.92;22.01;100975.53;4926306;29;20347;-69
2023/04/10 10:11:52;;;;;;;6.73;4.90;;;;;;;27.17;21.41;100980.63;4921911;29;20213;-69
2023/04/10 10:14:49;;;;;;;6.20;4.60;;;;;;;27.55;21.05;100973.66;4922935;29;20239;-69
2023/04/10 10:24:07;;;;;;;;;;;;;;;;;;;;;
2023/04/10 10:26:40;;;;;;;6.43;4.57;;;;;;;32.73;16.97;100953.59;4858486;29;20221;-70
2023/04/10 10:32:55;;;;;;;7.38;4.65;;;;;;;36.55;14.71;100929.66;4920395;29;20219;-70
2023/04/10 10:35:47;;;;;;;6.35;5.40;;;;;;;35.67;14.90;100928.09;4920720;29;20254;-71
2023/04/10 10:38:48;;;;;;;9.02;5.20;;;;;;;33.25;16.52;100920.00;4895115;29;20220;-70
2023/04/10 10:41:34;;;;;;;6.75;4.55;;;;;;;31.23;17.65;100935.31;4921224;29;20211;-71
2023/04/10 10:44:23;;;;;;;5.43;4.75;;;;;;;29.98;18.46;100913.59;4902479;29;20221;-70
2023/04/10 10:47:20;;;;;;;5.68;4.53;;;;;;;28.61;19.64;100915.13;4919828;29;20213;-70
2023/04/10 10:50:24;;;;;;;6.05;4.70;;;;;;;28.09;20.43;100909.31;4919806;29;20611;-70
2023/04/10 10:53:12;;;;;;;5.10;4.20;;;;;;;28.21;20.67;100911.97;4920002;29;20216;-70
2023/04/10 10:56:01;;;;;;;4.75;3.92;;;;;;;28.53;20.30;100921.06;4926632;28;20666;-70
2023/04/10 10:58:49;;;;;;;5.18;4.00;;;;;;;29.12;19.77;100912.94;4957932;28;20215;-69
2023/04/10 11:01:59;;;;;;;6.43;4.60;;;;;;;28.88;20.26;100914.34;4956368;28;20214;-72
2023/04/10 11:08:08;;;;;;;5.03;3.67;;;;;;;27.78;20.61;100886.28;4958168;28;20301;-71
2023/04/10 11:11:04;;;;;;;5.07;3.75;;;;;;;27.79;20.20;100882.50;4958929;28;20294;-70
2023/04/10 11:14:16;;;;;;;6.32;4.40;;;;;;;27.67;20.34;100885.31;4960781;28;20210;-70
2023/04/10 11:17:08;;;;;;;5.82;4.80;;;;;;;27.12;21.17;100871.63;4888667;29;20719;-67
2023/04/10 11:27:05;;;;;;;4.90;3.60;;;;;;;29.78;18.88;100848.69;4852652;29;20263;-69
2023/04/10 11:29:37;;;;;;;4.63;3.83;;;;;;;31.73;17.95;100844.00;4907154;29;20213;-70
2023/04/10 11:32:13;;;;;;;6.18;4.50;;;;;;;30.85;17.46;100851.75;4909701;29;20339;-71
2023/04/10 11:35:10;;;;;;;5.53;4.38;;;;;;;29.79;18.50;100844.03;4908122;29;20276;-70
2023/04/10 11:37:39;;;;;;;3.78;3.38;;;;;;;28.54;19.35;100843.59;4907747;29;20216;-70
2023/04/10 11:40:20;;;;;;;6.80;4.70;;;;;;;27.63;20.45;100853.38;4908940;29;20757;-69
2023/04/10 11:43:11;;;;;;;5.50;4.65;;;;;;;26.60;21.27;100855.47;4895453;29;20204;-70
2023/04/10 11:45:52;;;;;;;5.18;4.65;;;;;;;25.13;22.87;100842.50;4908320;29;20228;-72
2023/04/10 11:48:43;;;;;;;5.40;4.20;;;;;;;23.91;24.06;100831.09;4908367;29;20761;-70
2023/04/10 11:51:34;;;;;;;4.82;3.75;;;;;;;23.94;24.39;100828.72;4942959;28;20219;-71
2023/04/10 11:54:14;;;;;;;4.43;3.50;;;;;;;23.92;23.85;100822.72;4962334;28;20595;-69
2023/04/10 11:56:57;;;;;;;4.10;3.30;;;;;;;24.42;22.90;100821.69;4960412;28;20648;-70
2023/04/10 11:59:27;;;;;;;5.28;3.25;;;;;;;25.38;22.44;100807.81;4963948;28;20718;-70
2023/04/10 12:02:07;;;;;;;8.48;3.90;;;;;;;25.47;22.14;100803.69;4962977;28;20586;-70
2023/04/10 12:04:41;;;;;;;5.45;3.88;;;;;;;25.66;21.76;100799.78;4962630;28;20311;-70
2023/04/10 12:07:11;;;;;;;5.32;3.78;;;;;;;25.65;22.13;100803.56;4960978;28;20261;-70
2023/04/10 12:09:42;;;;;;;6.15;4.85;;;;;;;25.62;22.38;100798.59;4961654;28;21172;-70
2023/04/10 12:18:22;;;;;;;6.10;3.65;;;;;;;23.74;23.62;100794.84;4957311;28;20207;-70
2023/04/10 12:21:10;;;;;;;4.65;3.78;;;;;;;23.97;23.73;100784.94;4961490;28;20221;-70
2023/04/10 12:23:43;;;;;;;4.60;3.38;;;;;;;23.74;23.65;100789.44;4963643;28;20250;-70
2023/04/10 12:26:27;;;;;;;4.68;3.20;;;;;;;24.14;23.32;100778.88;4960711;28;20207;-68
2023/04/10 12:29:01;;;;;;;7.65;3.97;;;;;;;25.28;22.35;100780.44;4964012;28;20223;-70
2023/04/10 12:31:38;;;;;;;3.95;3.10;;;;;;;26.55;20.95;100776.53;4961097;28;20211;-70
2023/04/10 12:35:07;;;;;;;8.18;5.60;;;;;;;26.90;20.57;100767.31;4910285;29;20966;-70
2023/04/10 12:38:13;;;;;;;4.30;3.05;;;;;;;26.71;20.05;100753.13;4919415;28;20568;-68
2023/04/10 12:46:52;;;;;;;4.32;3.42;;;;;;;26.02;21.57;100754.31;4955091;28;20215;-70
2023/04/10 12:49:24;;;;;;;4.38;3.65;;;;;;;25.37;21.84;100758.13;4965243;28;20219;-69
2023/04/10 12:52:02;;;;;;;4.63;3.63;;;;;;;24.46;22.84;100750.50;4965202;28;20672;-70
2023/04/10 12:57:35;;;;;;;4.25;3.10;;;;;;;23.06;23.97;100738.91;4949125;28;20285;-69
2023/04/10 13:00:11;;;;;;;4.50;3.50;;;;;;;22.64;24.50;100740.50;4962248;28;20480;-69
2023/04/10 13:09:20;;;;;;;;;;;;;;;;;;;;;
2023/04/10 13:12:16;;;;;;;3.70;2.90;;;;;;;21.99;26.22;100729.09;4961970;28;20690;-70
2023/04/10 13:14:52;;;;;;;4.80;3.53;;;;;;;21.95;25.29;100719.78;4953906;28;20587;-70
2023/04/10 13:17:28;;;;;;;4.32;3.10;;;;;;;21.58;25.29;100709.78;4946409;28;20816;-70
2023/04/10 13:20:30;;;;;;;4.00;2.80;;;;;;;21.50;26.27;100699.22;4960041;28;20222;-70
2023/04/10 13:26:27;;;;;;;4.23;3.10;;;;;;;21.47;27.11;100689.69;4934822;28;21224;-69
2023/04/10 13:29:29;;;;;;;4.63;3.33;;;;;;;21.52;27.17;100692.59;4962281;28;20210;-69
2023/04/10 13:32:00;;;;;;;4.00;2.90;;;;;;;21.41;26.40;100679.75;4961643;28;20203;-71
2023/04/10 13:34:42;;;;;;;5.77;3.20;;;;;;;21.31;27.02;100685.59;4962343;28;20204;-70
2023/04/10 13:37:13;;;;;;;4.20;2.60;;;;;;;21.28;27.32;100680.66;4960153;28;20238;-69
2023/04/10 13:39:45;;;;;;;4.50;3.00;;;;;;;21.21;27.14;100669.03;4960107;28;20250;-68
2023/04/10 13:42:22;;;;;;;4.77;3.07;;;;;;;21.22;27.75;100667.16;4957228;28;20654;-69
2023/04/10 13:45:12;;;;;;;4.03;3.03;;;;;;;21.14;27.70;100662.81;4960917;28;20199;-72
2023/04/10 13:48:00;;;;;;;4.50;2.83;;;;;;;21.04;28.26;100655.16;4958615;28;20221;-69
2023/04/10 13:50:37;;;;;;;4.00;2.90;;;;;;;20.99;28.29;100651.44;4957566;28;20207;-70
2023/04/10 13:53:18;;;;;;;5.10;3.00;;;;;;;20.92;27.86;100656.03;4959919;28;20215;-69
2023/04/10 13:55:59;;;;;;;4.37;2.87;;;;;;;20.86;28.64;100643.38;4959313;28;20242;-69
2023/04/10 13:58:47;;;;;;;5.30;2.97;;;;;;;20.81;28.32;100643.19;4958708;28;20211;-70
2023/04/10 14:04:26;;;;;;;5.53;2.87;;;;;;;20.78;27.83;100635.53;4953727;28;20218;-69
2023/04/10 14:06:59;;;;;;;4.27;2.97;;;;;;;20.75;28.22;100630.56;4960952;28;20217;-70
2023/04/10 14:09:30;;;;;;;4.43;2.60;;;;;;;20.69;28.28;100631.41;4960521;28;20215;-70
2023/04/10 14:12:15;;;;;;;3.93;3.00;;;;;;;20.61;28.52;100632.44;4959135;28;20222;-69
2023/04/10 14:14:49;;;;;;;3.67;2.47;;;;;;;20.53;29.86;100628.13;4963434;28;20210;-70
2023/04/10 14:17:51;;;;;;;4.93;2.50;;;;;;;20.63;29.72;100617.75;4961952;28;20238;-69
2023/04/10 14:20:22;;;;;;;4.47;2.33;;;;;;;20.72;29.55;100612.97;4960810;28;20230;-70
2023/04/10 14:22:56;;;;;;;3.80;2.70;;;;;;;20.75;30.13;100614.41;4962927;28;20219;-72
2023/04/10 14:25:49;;;;;;;3.83;2.47;;;;;;;20.76;30.55;100608.78;4962659;28;20664;-70
2023/04/10 14:28:30;;;;;;;3.83;2.60;;;;;;;20.73;29.27;100605.72;4959334;28;20261;-70
2023/04/10 14:30:59;;;;;;;4.60;2.53;;;;;;;20.82;29.37;100607.13;4963784;28;20211;-69
2023/04/10 14:33:49;;;;;;;4.20;2.53;;;;;;;20.80;29.75;100598.44;4960872;28;20297;-68
2023/04/10 14:36:22;;;;;;;3.37;2.23;;;;;;;20.67;29.82;100591.19;4963492;28;20235;-69
2023/04/10 14:38:54;;;;;;;7.23;2.63;;;;;;;20.56;30.31;100583.78;4961750;28;20700;-70
2023/04/10 14:41:23;;;;;;;3.37;2.30;;;;;;;20.45;30.15;100571.78;4959374;28;20297;-69
2023/04/10 14:44:00;;;;;;;4.40;2.30;;;;;;;20.54;30.23;100580.47;4961528;28;20955;-70
2023/04/10 14:47:18;;;;;;;;;;;;;;;;;;;;;
2023/04/10 14:49:58;;;;;;;3.67;2.43;;;;;;;20.47;30.50;100566.19;4959431;28;20212;-69
2023/04/10 14:52:37;;;;;;;6.33;2.90;;;;;;;20.47;30.70;100558.09;4958056;28;20215;-70
2023/04/10 14:55:23;;;;;;;4.07;2.60;;;;;;;20.44;30.16;100553.94;4961727;28;20215;-69
2023/04/10 14:57:54;;;;;;;3.00;2.10;;;;;;;20.38;30.27;100543.19;4958591;28;20234;-70
2023/04/10 15:00:28;;;;;;;3.70;2.23;;;;;;;20.32;30.61;100539.44;4961834;28;20330;-70
2023/04/10 15:02:58;;;;;;;4.37;2.70;;;;;;;20.26;30.20;100529.50;4961943;28;20249;-69
2023/04/10 15:11:46;;;;;;;3.23;2.30;;;;;;;20.12;31.07;100515.25;4959421;28;20217;-70
2023/04/10 15:17:36;;;;;;;3.83;2.50;;;;;;;19.94;32.14;100506.16;4950487;28;20250;-68
2023/04/10 15:20:14;;;;;;;3.47;2.63;;;;;;;19.84;31.66;100501.19;4947722;28;20219;-70
2023/04/10 15:22:47;;;;;;;3.33;2.37;;;;;;;19.78;31.54;100497.47;4963117;28;20294;-69
2023/04/10 15:25:16;;;;;;;3.73;2.60;;;;;;;19.70;31.42;100497.66;4960802;28;20219;-69
2023/04/10 15:28:06;;;;;;;2.67;1.90;;;;;;;19.65;31.10;100500.16;4880860;29;20261;-68
2023/04/10 15:30:56;;;;;;;3.57;2.47;;;;;;;19.64;30.80;100503.88;4884149;29;20253;-69
2023/04/10 15:33:38;;;;;;;3.77;2.20;;;;;;;19.63;30.46;100504.06;4882615;29;20222;-69
2023/04/10 15:36:10;;;;;;;3.27;2.07;;;;;;;19.61;30.52;100504.31;4880160;29;20301;-69
2023/04/10 15:38:44;;;;;;;4.77;2.70;;;;;;;19.63;30.57;100491.44;4884748;29;20210;-69
2023/04/10 15:41:16;;;;;;;3.97;2.30;;;;;;;19.66;30.83;100480.28;4883937;29;20292;-69
2023/04/10 15:43:49;;;;;;;3.73;2.03;;;;;;;19.65;30.26;100478.63;4883905;29;20654;-69
2023/04/10 15:46:21;;;;;;;5.10;1.93;;;;;;;19.57;30.13;100476.16;4881975;29;20238;-69
2023/04/10 15:48:52;;;;;;;3.77;2.20;;;;;;;19.50;30.32;100461.88;4883328;29;20205;-68
2023/04/10 15:51:26;;;;;;;3.33;2.10;;;;;;;19.45;30.07;100453.56;4881880;29;20242;-70
2023/04/10 15:54:12;;;;;;;3.07;1.80;;;;;;;19.33;30.39;100441.78;4881566;29;20379;-72
2023/04/10 15:56:44;;;;;;;2.57;1.80;;;;;;;19.28;30.12;100430.78;4880176;29;20260;-70
2023/04/10 15:59:17;;;;;;;3.50;2.00;;;;;;;19.26;30.67;100430.19;4880214;29;20214;-68
2023/04/10 16:01:57;;;;;;;2.77;1.80;;;;;;;19.16;30.77;100425.22;4888065;29;20225;-68
2023/04/10 16:04:35;;;;;;;3.77;1.77;;;;;;;19.17;30.91;100424.19;4894334;28;20229;-69
2023/04/10 16:07:09;;;;;;;4.57;1.90;;;;;;;19.14;30.97;100422.72;4962891;28;20211;-69
2023/04/10 16:09:42;;;;;;;4.27;2.00;;;;;;;19.14;30.99;100422.72;4967476;28;20207;-69
2023/04/10 16:12:23;;;;;;;3.10;1.97;;;;;;;19.10;31.34;100424.16;4962536;28;20215;-68
2023/04/10 16:18:45;;;;;;;4.97;2.37;;;;;;;19.00;31.46;100426.41;4960577;28;20235;-72
2023/04/10 16:21:25;;;;;;;3.53;2.20;;;;;;;18.96;31.53;100433.25;4900980;28;20277;-68
2023/04/10 16:24:38;;;;;;;3.77;2.37;;;;;;;18.93;31.40;100432.81;4964973;28;20922;-69
2023/04/10 16:27:24;;;;;;;3.60;2.20;;;;;;;18.84;32.07;100436.69;4961800;28;20214;-69
2023/04/10 16:30:07;;;;;;;2.63;1.73;;;;;;;18.82;32.28;100434.25;4964036;28;20204;-68
2023/04/10 16:32:47;;;;;;;4.73;2.27;;;;;;;18.74;31.98;100432.53;4964123;28;20211;-69
2023/04/10 16:35:21;;;;;;;3.43;2.07;;;;;;;18.81;32.49;100427.22;4961481;28;20215;-69
2023/04/10 16:37:57;;;;;;;3.23;2.00;;;;;;;18.76;32.34;100424.28;4964411;28;20236;-69
2023/04/10 16:40:31;;;;;;;3.33;2.00;;;;;;;18.72;32.16;100420.38;4964664;28;20213;-68
2023/04/10 16:43:20;;;;;;;3.93;2.47;;;;;;;18.65;32.49;100408.75;4963599;28;20214;-70
2023/04/10 16:45:55;;;;;;;4.00;2.30;;;;;;;18.57;32.45;100414.31;4964548;28;20249;-69
2023/04/10 16:48:24;;;;;;;5.27;2.10;;;;;;;18.49;32.77;100411.75;4964473;28;20938;-69
2023/04/10 16:53:40;;;;;;;3.47;2.37;;;;;;;18.46;32.85;100406.81;4962503;28;20216;-69
2023/04/10 16:56:10;;;;;;;3.53;2.23;;;;;;;18.40;33.19;100401.19;4964238;28;20249;-72
2023/04/10 16:58:44;;;;;;;2.97;2.00;;;;;;;18.38;33.11;100391.72;4960704;28;20227;-69
2023/04/10 17:01:17;;;;;;;3.00;2.33;;;;;;;18.35;33.49;100384.06;4962827;28;21157;-69
2023/04/10 17:06:48;;;;;;;3.43;2.20;;;;;;;18.26;33.94;100379.88;4953718;28;20277;-69
2023/04/10 17:09:58;;;;;;;4.93;2.50;;;;;;;18.19;33.89;100379.88;4964338;28;20286;-68
2023/04/10 17:12:28;;;;;;;6.03;2.90;;;;;;;18.15;34.05;100378.59;4961043;28;20660;-69
2023/04/10 17:15:12;;;;;;;4.73;3.23;;;;;;;18.14;34.47;100371.56;4960650;28;20265;-69
2023/04/10 17:17:46;;;;;;;3.97;2.87;;;;;;;18.15;34.65;100369.72;4959691;28;20245;-69
2023/04/10 17:20:18;;;;;;;7.03;4.27;;;;;;;18.14;34.80;100368.88;4961093;28;20594;-67
2023/04/10 17:22:49;;;;;;;7.97;5.13;;;;;;;18.14;35.21;100362.69;4962277;28;20212;-72
2023/04/10 17:25:17;;;;;;;6.53;4.80;;;;;;;18.14;35.46;100350.09;4960434;28;20781;-69
2023/04/10 17:27:51;;;;;;;7.87;3.33;;;;;;;18.11;35.39;100352.38;4962779;28;20209;-69
2023/04/10 17:30:22;;;;;;;4.67;2.80;;;;;;;18.05;35.92;100343.25;4960295;28;20226;-69
2023/04/10 17:32:57;;;;;;;4.50;2.40;;;;;;;18.03;36.23;100334.56;4962873;28;20297;-70
2023/04/10 17:35:30;;;;;;;4.80;2.33;;;;;;;18.02;36.35;100327.56;4960851;28;20218;-68
2023/04/10 17:38:08;;;;;;;5.63;2.43;;;;;;;17.97;36.71;100321.97;4960911;28;20214;-67
2023/04/10 17:40:45;;;;;;;3.23;2.20;;;;;;;17.92;36.95;100329.78;4960512;28;20207;-68
2023/04/10 17:43:25;;;;;;;8.40;2.17;;;;;;;17.90;36.87;100327.28;4962397;28;20205;-68
2023/04/10 17:45:59;;;;;;;3.50;2.20;;;;;;;17.90;37.32;100331.84;4959056;28;20246;-70
2023/04/10 17:48:34;;;;;;;3.07;1.90;;;;;;;17.85;37.51;100331.63;4961718;28;20346;-71
2023/04/10 17:51:06;;;;;;;5.30;2.03;;;;;;;17.81;37.53;100327.66;4961351;28;20663;-69
2023/04/10 17:53:37;;;;;;;3.97;1.70;;;;;;;17.77;38.03;100329.06;4958723;28;20211;-67
2023/04/10 17:56:16;;;;;;;3.13;2.10;;;;;;;17.78;38.11;100334.25;4957179;28;20254;-70
2023/04/10 17:58:52;;;;;;;3.33;2.07;;;;;;;17.71;38.39;100327.19;4957583;28;20293;-68
2023/04/10 18:01:29;;;;;;;3.77;2.40;;;;;;;17.64;38.47;100314.56;4956229;28;20238;-69
2023/04/10 18:03:58;;;;;;;3.30;2.00;;;;;;;17.60;38.34;100318.63;4961417;28;20203;-67
2023/04/10 18:06:34;;;;;;;4.33;2.87;;;;;;;17.59;38.30;100325.00;4960784;28;20202;-68
2023/04/10 18:09:13;;;;;;;5.00;2.13;;;;;;;17.62;38.50;100347.97;4960604;28;20234;-69
2023/04/10 18:11:51;;;;;;;3.13;2.00;;;;;;;17.53;38.38;100360.66;4959630;28;20207;-69
2023/04/10 18:14:55;;;;;;;3.00;1.90;;;;;;;17.57;38.27;100363.78;4961479;28;20217;-68
2023/04/10 18:17:32;;;;;;;5.40;2.33;;;;;;;17.56;38.07;100365.66;4957681;28;20208;-69
2023/04/10 18:20:26;;;;;;;3.63;2.27;;;;;;;17.53;38.52;100352.63;4951437;28;20215;-69
2023/04/10 18:22:55;;;;;;;5.77;2.60;;;;;;;17.51;38.01;100333.22;4925421;23;20260;-62
2023/04/10 18:25:22;;;;;;;5.03;2.23;;;;;;;17.53;37.95;100320.44;4879382;29;20549;-59
2023/04/10 18:27:51;;;;;;;3.97;2.50;;;;;;;17.49;38.14;100323.75;4878223;29;20745;-61
2023/04/10 18:30:39;;;;;;;4.07;2.53;;;;;;;17.44;37.94;100335.03;4878828;29;20329;-59
2023/04/10 18:33:09;;;;;;;5.30;2.30;;;;;;;17.44;38.26;100335.03;4879401;29;20252;-61
2023/04/10 18:35:38;;;;;;;3.43;2.30;;;;;;;17.43;38.24;100337.91;4877278;29;20491;-59
2023/04/10 18:38:06;;;;;;;3.73;2.47;;;;;;;17.41;38.06;100339.97;4879905;29;20237;-60
2023/04/10 18:40:35;;;;;;;5.13;2.47;;;;;;;17.39;38.46;100332.13;4879227;29;20240;-61
2023/04/10 18:43:03;;;;;;;4.10;2.20;;;;;;;17.36;38.56;100329.81;4879285;29;20784;-61
2023/04/10 18:45:33;;;;;;;3.10;2.20;;;;;;;17.33;38.81;100324.84;4879959;29;20213;-63
2023/04/10 18:48:00;;;;;;;3.00;2.00;;;;;;;17.28;38.68;100328.13;4878449;29;20230;-60
2023/04/10 18:50:30;;;;;;;4.43;2.70;;;;;;;17.28;39.10;100327.28;4880976;29;20324;-59
2023/04/10 18:52:58;;;;;;;5.13;3.33;;;;;;;17.27;39.12;100333.66;4878940;29;20224;-61
2023/04/10 18:55:25;;;;;;;5.43;3.23;;;;;;;17.24;39.23;100342.91;4879105;29;20979;-60
2023/04/10 18:57:53;;;;;;;4.20;2.43;;;;;;;17.22;39.59;100344.16;4878332;29;20224;-60
2023/04/10 19:00:21;;;;;;;5.50;2.80;;;;;;;17.28;39.60;100351.41;4879199;29;20355;-60
2023/04/10 19:02:49;;;;;;;3.93;2.33;;;;;;;17.25;39.45;100352.63;4880415;29;20683;-59
2023/04/10 19:05:17;;;;;;;4.07;2.37;;;;;;;17.28;39.47;100354.09;4878911;29;20268;-60
2023/04/10 19:07:46;;;;;;;4.53;2.30;;;;;;;17.24;39.30;100352.81;4877408;29;20214;-59
2023/04/10 19:10:30;;;;;;;4.57;2.70;;;;;;;17.29;39.26;100347.72;4878364;29;20780;-61
2023/04/10 19:12:57;;;;;;;3.70;2.40;;;;;;;17.25;40.17;100346.44;4878704;29;20218;-64
2023/04/10 19:15:25;;;;;;;5.60;2.73;;;;;;;17.25;40.28;100343.75;4877998;29;20213;-61
2023/04/10 19:17:53;;;;;;;4.33;2.80;;;;;;;17.26;39.78;100343.56;4878466;29;20241;-59
2023/04/10 19:20:21;;;;;;;5.93;3.17;;;;;;;17.31;39.84;100337.63;4877540;29;20328;-60
2023/04/10 19:23:11;;;;;;;4.77;2.90;;;;;;;17.28;40.18;100332.66;4878668;29;20328;-61
2023/04/10 19:25:39;;;;;;;3.83;2.40;;;;;;;17.25;40.37;100341.06;4878211;29;20218;-62
2023/04/10 19:28:07;;;;;;;5.80;2.87;;;;;;;17.20;40.74;100338.97;4882258;29;20217;-60
2023/04/10 19:30:35;;;;;;;4.70;2.70;;;;;;;17.16;41.05;100335.03;4877896;29;20217;-61
2023/04/10 19:33:02;;;;;;;4.23;2.93;;;;;;;17.10;41.84;100334.97;4880538;29;20228;-61
2023/04/10 19:35:30;;;;;;;5.70;2.67;;;;;;;17.04;42.57;100346.47;4885831;29;20214;-61
2023/04/10 19:37:58;;;;;;;3.60;2.57;;;;;;;16.99;42.69;100343.53;4891567;29;20659;-62
2023/04/10 19:40:27;;;;;;;3.40;2.00;;;;;;;16.98;43.16;100341.88;4883893;29;20230;-62
2023/04/10 19:42:54;;;;;;;9.10;2.70;;;;;;;16.97;43.28;100324.16;4879984;29;20218;-62
2023/04/10 19:45:27;;;;;;;3.60;2.43;;;;;;;16.97;43.23;100316.13;4882633;29;20643;-63
2023/04/10 19:47:56;;;;;;;4.13;2.53;;;;;;;16.89;43.38;100311.72;4885567;29;20241;-63
2023/04/10 19:50:24;;;;;;;6.00;2.60;;;;;;;16.78;43.65;100302.38;4883514;29;20228;-60
2023/04/10 19:52:52;;;;;;;3.83;2.63;;;;;;;16.74;43.94;100293.06;4880145;29;20240;-62
2023/04/10 19:55:20;;;;;;;4.67;2.40;;;;;;;16.72;43.86;100289.72;4881259;29;20599;-61
2023/04/10 19:57:49;;;;;;;4.37;2.60;;;;;;;16.67;43.95;100281.47;4878792;29;20225;-61
2023/04/10 20:00:18;;;;;;;5.47;2.33;;;;;;;16.64;43.89;100281.84;4887019;29;20243;-62
2023/04/10 20:02:45;;;;;;;4.27;2.63;;;;;;;16.55;44.16;100283.78;4883441;29;20221;-63
2023/04/10 20:05:13;;;;;;;5.37;2.43;;;;;;;16.59;44.31;100272.69;4887272;29;20209;-61
2023/04/10 20:07:41;;;;;;;3.73;2.43;;;;;;;16.61;44.09;100276.03;4885514;29;20214;-62
2023/04/10 20:10:10;;;;;;;3.57;2.33;;;;;;;16.58;44.49;100271.03;4888529;29;20213;-62
2023/04/10 20:12:38;;;;;;;5.37;2.20;;;;;;;16.55;44.29;100261.53;4892550;29;20303;-61
2023/04/10 20:15:09;;;;;;;5.23;2.57;;;;;;;16.50;44.45;100250.59;4888703;29;20214;-62
2023/04/10 20:17:37;;;;;;;3.83;2.60;;;;;;;16.55;44.45;100256.19;4889828;29;20225;-63
2023/04/10 20:20:06;;;;;;;2.97;2.10;;;;;;;16.53;44.75;100248.34;4883465;29;20239;-63
2023/04/10 20:22:33;;;;;;;4.90;2.60;;;;;;;16.59;45.05;100245.94;4888664;29;20285;-64
2023/04/10 20:25:01;;;;;;;4.50;2.50;;;;;;;16.55;44.85;100234.78;4881082;29;20224;-67
2023/04/10 20:27:29;;;;;;;4.57;2.50;;;;;;;16.56;45.10;100241.78;4880694;29;20244;-70
2023/04/10 20:29:57;;;;;;;4.10;2.17;;;;;;;16.54;44.84;100233.94;4885007;29;20206;-70
2023/04/10 20:32:26;;;;;;;3.23;2.07;;;;;;;16.45;44.97;100240.44;4884100;29;20666;-68
2023/04/10 20:34:54;;;;;;;3.07;2.27;;;;;;;16.49;44.93;100239.06;4882040;29;20237;-68
2023/04/10 20:37:21;;;;;;;5.40;2.97;;;;;;;16.49;45.18;100244.41;4880344;29;20236;-70
2023/04/10 20:39:50;;;;;;;3.87;2.47;;;;;;;16.51;45.03;100233.50;4880869;29;20241;-69
2023/04/10 20:42:18;;;;;;;3.07;2.10;;;;;;;16.48;45.31;100215.97;4882075;29;21215;-69
2023/04/10 20:44:46;;;;;;;3.53;2.37;;;;;;;16.49;45.46;100214.13;4884625;29;20213;-69
2023/04/10 20:47:13;;;;;;;3.57;2.60;;;;;;;16.43;45.45;100217.59;4884135;29;20240;-72
2023/04/10 20:49:42;;;;;;;3.87;2.53;;;;;;;16.43;45.58;100220.28;4882093;29;20266;-68
2023/04/10 20:52:10;;;;;;;4.43;2.00;;;;;;;16.41;45.66;100223.13;4880172;29;20221;-69
2023/04/10 20:54:38;;;;;;;5.87;2.87;;;;;;;16.45;45.82;100224.38;4882841;29;20214;-69
2023/04/10 20:57:05;;;;;;;4.17;2.13;;;;;;;16.47;45.88;100224.19;4881963;29;20221;-69
2023/04/10 20:59:34;;;;;;;4.23;2.23;;;;;;;16.43;45.61;100230.97;4878910;29;20236;-68
2023/04/10 21:02:02;;;;;;;4.00;2.40;;;;;;;16.40;45.77;100234.84;4880753;29;20213;-68
2023/04/10 21:04:31;;;;;;;5.33;2.30;;;;;;;16.38;45.84;100234.19;4883630;29;21073;-68